CheckWX is a tool to help pilots better visualize weather data.  It is not intended as a substitute for an official pre-flight weather briefing.

15:14:11 UTC

KHRX METAR
Hereford Municipal Airport
Hereford, Texas, USA
Current

19 mins ago

KHRX 261455Z AUTO 17011G17KT 10SM BKN010 OVC018 21/20 A3003 RMK AO2 T02100195
Observed
May-26 @ 14:55 UTC
Wind
  • 170° at 11 KTS
  • Gusting to 17 KTS
Visibility
10 SM
Flight Rules
MVFR
Cloud Levels
  • Broken at 1,000' AGL
  • Overcast at 1,800' AGL
Temperature
21°C / 70°F
Dewpoint
20°C / 68°F
Humidity
94%
Altimeter
30.03" Hg
Pressure
1016.92 hPa
Previous

39 mins ago

KHRX 261435Z AUTO 17010G14KT 10SM BKN010 OVC018 21/19 A3003 RMK AO2 T02050193
Observed
May-26 @ 14:35 UTC
Wind
  • 170° at 10 KTS
  • Gusting to 14 KTS
Visibility
10 SM
Flight Rules
MVFR
Cloud Levels
  • Broken at 1,000' AGL
  • Overcast at 1,800' AGL
Temperature
21°C / 70°F
Dewpoint
19°C / 66°F
Humidity
88%
Altimeter
30.03" Hg
Pressure
1016.92 hPa
Previous

59 mins ago

KHRX 261415Z AUTO 18009KT 10SM BKN008 OVC020 20/20 A3003 RMK AO2 T02040195
Observed
May-26 @ 14:15 UTC
Wind
  • 180° at 9 KTS
Visibility
10 SM
Flight Rules
IFR
Cloud Levels
  • Broken at 800' AGL
  • Overcast at 2,000' AGL
Temperature
20°C / 68°F
Dewpoint
20°C / 68°F
Humidity
100%
Altimeter
30.03" Hg
Pressure
1016.92 hPa